CEB143 RPLL-RPVI
Flight info
| Callsign | CEB143 |
|---|---|
| Flight time | N/A |
| Altitude | 31000 |
| Route | RDVXVERDE/06 VERDE A461 SAJ W3 BEDER BEDER1S |
| Aircraft | A339/H-SADE1E2E3GHIJ3J5M1P2RWXY/LB2D1 |
Departure
| Time | N/A |
|---|---|
| Airport | Ninoy Aquino International Airport (RPLL) |
Arrival
| Time | 2026-04-26 12:56 |
|---|---|
| Airport | Iloilo International Airport (RPVI) |
| Time | Latitude | Longitude | Altitude | Speed | Heading |
|---|---|---|---|---|---|
| 2026-04-26 12:27 | 12.37445 | 121.05335 | 30133 ft | 427 kts | 160° |
| 2026-04-26 12:27 | 12.34767 | 121.06654 | 29625 ft | 427 kts | 150° |
| 2026-04-26 12:28 | 12.32352 | 121.08419 | 29130 ft | 427 kts | 140° |
| 2026-04-26 12:28 | 12.30230 | 121.10547 | 28562 ft | 428 kts | 135° |
| 2026-04-26 12:28 | 12.28195 | 121.12774 | 27975 ft | 430 kts | 134° |
| 2026-04-26 12:28 | 12.26200 | 121.14985 | 27518 ft | 427 kts | 134° |
| 2026-04-26 12:29 | 12.24195 | 121.17207 | 27077 ft | 425 kts | 134° |
| 2026-04-26 12:29 | 12.22173 | 121.19440 | 26618 ft | 422 kts | 134° |
| 2026-04-26 12:29 | 12.18195 | 121.23821 | 25702 ft | 419 kts | 134° |
| 2026-04-26 12:30 | 12.16227 | 121.25983 | 25254 ft | 417 kts | 134° |
| 2026-04-26 12:30 | 12.14263 | 121.28140 | 24807 ft | 415 kts | 133° |
| 2026-04-26 12:30 | 12.12297 | 121.30296 | 24368 ft | 413 kts | 133° |
| 2026-04-26 12:31 | 12.08408 | 121.34557 | 23493 ft | 409 kts | 133° |
| 2026-04-26 12:31 | 12.06458 | 121.36694 | 23070 ft | 407 kts | 133° |
| 2026-04-26 12:31 | 12.04541 | 121.38796 | 22649 ft | 405 kts | 133° |
| 2026-04-26 12:31 | 12.02630 | 121.40888 | 22234 ft | 403 kts | 133° |
| 2026-04-26 12:32 | 12.00706 | 121.42994 | 21837 ft | 401 kts | 133° |
| 2026-04-26 12:32 | 11.98821 | 121.45058 | 21464 ft | 398 kts | 133° |
| 2026-04-26 12:32 | 11.95079 | 121.49140 | 20734 ft | 392 kts | 133° |
| 2026-04-26 12:33 | 11.93201 | 121.51176 | 20354 ft | 389 kts | 133° |
| 2026-04-26 12:33 | 11.91370 | 121.53166 | 19970 ft | 387 kts | 132° |
| 2026-04-26 12:33 | 11.89532 | 121.55169 | 19600 ft | 384 kts | 132° |
| 2026-04-26 12:33 | 11.87697 | 121.57171 | 19235 ft | 381 kts | 132° |
| 2026-04-26 12:34 | 11.85911 | 121.59122 | 18869 ft | 379 kts | 132° |
| 2026-04-26 12:34 | 11.84108 | 121.61092 | 18495 ft | 376 kts | 132° |
| 2026-04-26 12:34 | 11.82339 | 121.63026 | 18125 ft | 374 kts | 132° |
| 2026-04-26 12:34 | 11.80549 | 121.64983 | 17751 ft | 372 kts | 132° |
| 2026-04-26 12:35 | 11.78788 | 121.66908 | 17376 ft | 369 kts | 132° |
| 2026-04-26 12:35 | 11.77056 | 121.68800 | 17012 ft | 367 kts | 132° |
| 2026-04-26 12:35 | 11.75321 | 121.70697 | 16649 ft | 365 kts | 132° |
| 2026-04-26 12:35 | 11.73579 | 121.72599 | 16286 ft | 363 kts | 132° |
| 2026-04-26 12:36 | 11.71862 | 121.74474 | 15959 ft | 359 kts | 132° |
| 2026-04-26 12:36 | 11.70161 | 121.76331 | 15877 ft | 358 kts | 132° |
| 2026-04-26 12:36 | 11.68446 | 121.78203 | 15872 ft | 360 kts | 132° |
| 2026-04-26 12:36 | 11.66737 | 121.80068 | 15866 ft | 360 kts | 131° |
| 2026-04-26 12:37 | 11.65043 | 121.81917 | 15773 ft | 357 kts | 132° |
| 2026-04-26 12:37 | 11.63358 | 121.83755 | 15423 ft | 355 kts | 132° |
| 2026-04-26 12:37 | 11.61662 | 121.85606 | 15010 ft | 355 kts | 132° |
| 2026-04-26 12:37 | 11.59977 | 121.87446 | 14634 ft | 354 kts | 132° |
| 2026-04-26 12:38 | 11.58313 | 121.89259 | 14275 ft | 352 kts | 132° |
| 2026-04-26 12:38 | 11.56881 | 121.90821 | 13966 ft | 350 kts | 132° |
| 2026-04-26 12:38 | 11.55225 | 121.92625 | 13611 ft | 348 kts | 132° |
| 2026-04-26 12:38 | 11.53555 | 121.94444 | 13257 ft | 346 kts | 132° |
| 2026-04-26 12:39 | 11.51918 | 121.96227 | 12919 ft | 343 kts | 131° |
| 2026-04-26 12:39 | 11.50292 | 121.97998 | 12585 ft | 341 kts | 131° |
| 2026-04-26 12:39 | 11.48683 | 121.99752 | 12241 ft | 339 kts | 131° |
| 2026-04-26 12:39 | 11.47083 | 122.01494 | 11904 ft | 337 kts | 131° |
| 2026-04-26 12:40 | 11.45487 | 122.03233 | 11561 ft | 335 kts | 131° |
| 2026-04-26 12:40 | 11.43896 | 122.04964 | 11213 ft | 333 kts | 131° |
| 2026-04-26 12:40 | 11.42306 | 122.06695 | 10870 ft | 331 kts | 131° |
| 2026-04-26 12:40 | 11.40747 | 122.08391 | 10602 ft | 327 kts | 131° |
| 2026-04-26 12:41 | 11.39207 | 122.10067 | 10463 ft | 319 kts | 131° |
| 2026-04-26 12:41 | 11.37701 | 122.11705 | 10324 ft | 311 kts | 131° |
| 2026-04-26 12:41 | 11.36233 | 122.13301 | 10194 ft | 303 kts | 131° |
| 2026-04-26 12:41 | 11.34815 | 122.14844 | 10071 ft | 296 kts | 131° |
| 2026-04-26 12:42 | 11.33416 | 122.16367 | 9890 ft | 291 kts | 131° |
| 2026-04-26 12:42 | 11.32040 | 122.17866 | 9623 ft | 290 kts | 131° |
| 2026-04-26 12:42 | 11.30661 | 122.19367 | 9345 ft | 290 kts | 131° |
| 2026-04-26 12:42 | 11.29282 | 122.20867 | 9097 ft | 288 kts | 131° |
| 2026-04-26 12:43 | 11.27917 | 122.22350 | 9079 ft | 287 kts | 131° |
| 2026-04-26 12:43 | 11.26545 | 122.23842 | 9085 ft | 289 kts | 131° |
| 2026-04-26 12:43 | 11.25163 | 122.25347 | 9090 ft | 289 kts | 131° |
| 2026-04-26 12:43 | 11.23787 | 122.26842 | 9084 ft | 289 kts | 131° |
| 2026-04-26 12:44 | 11.22413 | 122.28335 | 9080 ft | 289 kts | 131° |
| 2026-04-26 12:44 | 11.21038 | 122.29829 | 9077 ft | 289 kts | 131° |
| 2026-04-26 12:44 | 11.20568 | 122.30340 | 9075 ft | 289 kts | 131° |
| 2026-04-26 12:44 | 11.18277 | 122.32825 | 9072 ft | 288 kts | 131° |
| 2026-04-26 12:45 | 11.16952 | 122.34335 | 9041 ft | 285 kts | 122° |
| 2026-04-26 12:45 | 11.16213 | 122.36153 | 8858 ft | 273 kts | 96° |
| 2026-04-26 12:45 | 11.16162 | 122.38037 | 8673 ft | 261 kts | 88° |
| 2026-04-26 12:45 | 11.16199 | 122.39851 | 8362 ft | 255 kts | 88° |
| 2026-04-26 12:46 | 11.16231 | 122.41640 | 7974 ft | 253 kts | 88° |
| 2026-04-26 12:46 | 11.16254 | 122.43427 | 7628 ft | 249 kts | 88° |
| 2026-04-26 12:46 | 11.16271 | 122.45158 | 7369 ft | 239 kts | 88° |
| 2026-04-26 12:46 | 11.16283 | 122.46791 | 7152 ft | 227 kts | 88° |
| 2026-04-26 12:47 | 11.16293 | 122.48354 | 6940 ft | 215 kts | 88° |
| 2026-04-26 12:47 | 11.16302 | 122.49840 | 6741 ft | 204 kts | 88° |
| 2026-04-26 12:47 | 11.16306 | 122.51247 | 6560 ft | 194 kts | 90° |
| 2026-04-26 12:47 | 11.16163 | 122.52577 | 6389 ft | 185 kts | 98° |
| 2026-04-26 12:48 | 11.15836 | 122.53817 | 6218 ft | 178 kts | 107° |
| 2026-04-26 12:48 | 11.15412 | 122.54972 | 6048 ft | 170 kts | 107° |
| 2026-04-26 12:48 | 11.15000 | 122.56068 | 5887 ft | 162 kts | 107° |
| 2026-04-26 12:48 | 11.14600 | 122.57130 | 5692 ft | 156 kts | 107° |
| 2026-04-26 12:49 | 11.14182 | 122.58133 | 5446 ft | 157 kts | 117° |
| 2026-04-26 12:49 | 11.13447 | 122.58977 | 5201 ft | 160 kts | 137° |
| 2026-04-26 12:49 | 11.12432 | 122.59415 | 4990 ft | 162 kts | 166° |
| 2026-04-26 12:49 | 11.11295 | 122.59435 | 4759 ft | 163 kts | 182° |
| 2026-04-26 12:50 | 11.10169 | 122.59218 | 4501 ft | 164 kts | 191° |
| 2026-04-26 12:50 | 11.09080 | 122.58880 | 4189 ft | 164 kts | 195° |
| 2026-04-26 12:50 | 11.07988 | 122.58491 | 3867 ft | 165 kts | 195° |
| 2026-04-26 12:50 | 11.06900 | 122.58090 | 3563 ft | 165 kts | 196° |
| 2026-04-26 12:51 | 11.05814 | 122.57686 | 3265 ft | 166 kts | 195° |
| 2026-04-26 12:51 | 11.04744 | 122.57288 | 3037 ft | 163 kts | 196° |
| 2026-04-26 12:51 | 11.03662 | 122.56886 | 3021 ft | 165 kts | 196° |
| 2026-04-26 12:51 | 11.02588 | 122.56488 | 3016 ft | 165 kts | 196° |
| 2026-04-26 12:52 | 11.01489 | 122.56081 | 3013 ft | 165 kts | 196° |
| 2026-04-26 12:52 | 11.00412 | 122.55680 | 3010 ft | 165 kts | 196° |
| 2026-04-26 12:52 | 10.99325 | 122.55276 | 3010 ft | 166 kts | 196° |
| 2026-04-26 12:52 | 10.98227 | 122.54869 | 3002 ft | 166 kts | 196° |
| 2026-04-26 12:53 | 10.97138 | 122.54466 | 2834 ft | 166 kts | 196° |
| 2026-04-26 12:53 | 10.96055 | 122.54064 | 2599 ft | 164 kts | 197° |
| 2026-04-26 12:53 | 10.94990 | 122.53669 | 2374 ft | 162 kts | 197° |
| 2026-04-26 12:53 | 10.93927 | 122.53275 | 2159 ft | 162 kts | 197° |
| 2026-04-26 12:54 | 10.92858 | 122.52879 | 1941 ft | 161 kts | 197° |
| 2026-04-26 12:54 | 10.91801 | 122.52485 | 1717 ft | 161 kts | 196° |
| 2026-04-26 12:54 | 10.90752 | 122.52103 | 1498 ft | 160 kts | 195° |
| 2026-04-26 12:54 | 10.89689 | 122.51726 | 1272 ft | 159 kts | 196° |
| 2026-04-26 12:55 | 10.88654 | 122.51318 | 1053 ft | 158 kts | 198° |
| 2026-04-26 12:55 | 10.87627 | 122.50932 | 830 ft | 157 kts | 197° |
| 2026-04-26 12:55 | 10.86592 | 122.50551 | 640 ft | 156 kts | 197° |
| 2026-04-26 12:55 | 10.85570 | 122.50185 | 438 ft | 154 kts | 196° |
| 2026-04-26 12:56 | 10.84560 | 122.49796 | 263 ft | 153 kts | 197° |
| 2026-04-26 12:56 | 10.83574 | 122.49435 | 185 ft | 139 kts | 197° |
| 2026-04-26 12:56 | 10.83041 | 122.49242 | 184 ft | 23 kts | 200° |
| 2026-04-26 12:56 | 10.83024 | 122.49236 | 184 ft | 0 kts | 200° |
| 2026-04-26 12:57 | 10.82935 | 122.49202 | 184 ft | 17 kts | 200° |
| 2026-04-26 12:57 | 10.82819 | 122.49159 | 184 ft | 18 kts | 200° |
| 2026-04-26 12:57 | 10.82699 | 122.49114 | 184 ft | 18 kts | 200° |
| 2026-04-26 12:58 | 10.82470 | 122.49031 | 184 ft | 16 kts | 201° |
| 2026-04-26 12:58 | 10.82360 | 122.48990 | 184 ft | 16 kts | 197° |
| 2026-04-26 12:58 | 10.82270 | 122.48981 | 184 ft | 7 kts | 202° |
| 2026-04-26 12:58 | 10.82266 | 122.48962 | 184 ft | 3 kts | 327° |
| 2026-04-26 12:59 | 10.82301 | 122.48968 | 184 ft | 6 kts | 15° |
| 2026-04-26 12:59 | 10.82353 | 122.48985 | 184 ft | 8 kts | 19° |
| 2026-04-26 12:59 | 10.82416 | 122.49007 | 184 ft | 10 kts | 20° |
| 2026-04-26 12:59 | 10.82488 | 122.49035 | 184 ft | 11 kts | 21° |
| 2026-04-26 13:00 | 10.82569 | 122.49065 | 184 ft | 12 kts | 21° |
| 2026-04-26 13:00 | 10.82655 | 122.49097 | 184 ft | 13 kts | 20° |
| 2026-04-26 13:00 | 10.82749 | 122.49132 | 184 ft | 14 kts | 20° |
| 2026-04-26 13:00 | 10.82846 | 122.49170 | 184 ft | 15 kts | 22° |
| 2026-04-26 13:01 | 10.82943 | 122.49211 | 184 ft | 15 kts | 23° |
| 2026-04-26 13:01 | 10.83036 | 122.49253 | 184 ft | 11 kts | 22° |
| 2026-04-26 13:01 | 10.83093 | 122.49286 | 184 ft | 4 kts | 60° |
| 2026-04-26 13:01 | 10.83086 | 122.49318 | 184 ft | 6 kts | 109° |
| 2026-04-26 13:02 | 10.83068 | 122.49370 | 184 ft | 9 kts | 110° |
| 2026-04-26 13:02 | 10.83044 | 122.49435 | 184 ft | 9 kts | 110° |
| 2026-04-26 13:02 | 10.83031 | 122.49495 | 184 ft | 7 kts | 90° |
| 2026-04-26 13:02 | 10.83029 | 122.49542 | 184 ft | 6 kts | 99° |
| 2026-04-26 13:03 | 10.83019 | 122.49577 | 183 ft | 2 kts | 108° |
| 2026-04-26 13:03 | 10.83018 | 122.49583 | 183 ft | 0 kts | 108° |